Main page
METAR-TAF:

METAR-TAF

Airports :

Aurillac – Tronquières Airport

Aurillac, France

latitude: 44-53N, longitude: 002-25E, elevation: 639 m

Current weather observation

The report was made 43 minutes ago, at 13:30 UTC
Wind 11 kt from the Southeast, varying between East/Southeast and South
Temperature 13°C
Humidity 33%
Pressure 1028 hPa
Visibility 10 km or more
no clouds below 1500 m and no cumulonimbus

METAR: LFLW 021330Z AUTO 14011KT 120V180 CAVOK 13/M03 Q1028 NOSIG

Time: 15:13 (14:13 UTC)

Forecast

The report was made 3 hours and 13 minutes ago, at 11:00 UTC
Forecast valid from 02 at 12 UTC to 02 at 21 UTC
Wind 10 kt from the Southeast
Visibility 10 km or more
no clouds below 1500 m and no cumulonimbus

TAF: LFLW 021100Z 0212/0221 14010KT CAVOK

Weather observations and forecasts of more than 4000 airports (METAR and TAF reports).

The available stations are represented by yellow and red dots on the map.

Hover mouse over dot to see the name of the station.

Then click to see weather observations and forecasts.

To change the map : click on the green buttons with a black cross to zoom in, on the green button with a dash to zoom out, or on the green arrows for adjacent maps.


METAR-TAF: